Check out our new PWSWeather beta!
PWSweather.com
Personal Weather Stations
Station Observations
PENICUIKWS
PenicuikGB

PenicuikGB

Lat: 55.830932, Lon: -3.224533000000065

Elevation: 166

Station Type: Fine Offset

http://weather.penicuik.org

High Low Average
Temperature 76.3°F24.6°C 57.6°F14.2°C 65.2°F18.4°C
Dew Point 60.7°F15.9°C 47.9°F8.8°C 54.4°F12.4°C
Winds 4.2 mph 6.8 kmh Calm Calm 2.0 mph SSW3.2 kmh SSW
Wind Gusts 7.6 mph12.2 kmh -- 3.0 mph4.8 kmh
Humidity 94% 40% 71%
Pressure 29.94 in1013.9 mb 29.87 in1011.5 mb -
Precipitation 0.01 in0.3 mm - -
Hour Temp Dew Point Humidity Winds Wind Gusts Pressure Precip Precip Rate Daily Precip Total
12:00 AM 62.4°F16.9°C 59.2°F15.1°C 89% 0.9 mph WNW1.4 kmh WNW 1.6 mph2.6 kmh 29.90 in1012.5 mb 0.00 in0.0 mm 0.00 in0.0 mm 0.00 in0.0 mm
12:15 AM 62.2°F16.8°C 59.0°F15.0°C 89% 0.6 mph NE1.0 kmh NE 1.6 mph2.6 kmh 29.91 in1012.9 mb 0.00 in0.0 mm 0.00 in0.0 mm 0.00 in0.0 mm
12:30 AM 62.2°F16.8°C 59.0°F15.0°C 89% 0.6 mph NNE1.0 kmh NNE 2.2 mph3.5 kmh 29.90 in1012.5 mb 0.00 in0.0 mm 0.00 in0.0 mm 0.00 in0.0 mm
12:45 AM 62.6°F17.0°C 59.0°F15.0°C 88% 1.3 mph W2.1 kmh W 3.1 mph5.0 kmh 29.90 in1012.5 mb 0.00 in0.0 mm 0.00 in0.0 mm 0.00 in0.0 mm
01:00 AM 62.6°F17.0°C 59.0°F15.0°C 88% 0.3 mph NNW0.5 kmh NNW 1.6 mph2.6 kmh 29.89 in1012.2 mb 0.00 in0.0 mm 0.00 in0.0 mm 0.00 in0.0 mm
01:15 AM 62.6°F17.0°C 59.0°F15.0°C 88% 0.2 mph NE0.3 kmh NE 0.7 mph1.1 kmh 29.90 in1012.5 mb 0.00 in0.0 mm 0.00 in0.0 mm 0.00 in0.0 mm
01:30 AM 62.6°F17.0°C 59.0°F15.0°C 88% 0.9 mph NW1.4 kmh NW 1.6 mph2.6 kmh 29.89 in1012.2 mb 0.00 in0.0 mm 0.00 in0.0 mm 0.00 in0.0 mm
01:45 AM 62.6°F17.0°C 59.0°F15.0°C 88% 0.5 mph NW0.8 kmh NW 1.6 mph2.6 kmh 29.89 in1012.2 mb 0.00 in0.0 mm 0.00 in0.0 mm 0.00 in0.0 mm
02:00 AM 62.6°F17.0°C 59.0°F15.0°C 88% 0.1 mph W0.2 kmh W 0.7 mph1.1 kmh 29.89 in1012.2 mb 0.00 in0.0 mm 0.00 in0.0 mm 0.00 in0.0 mm
02:15 AM 62.6°F17.0°C 59.0°F15.0°C 88% 1.3 mph SE2.1 kmh SE 3.1 mph5.0 kmh 29.89 in1012.2 mb 0.00 in0.0 mm 0.00 in0.0 mm 0.00 in0.0 mm
02:30 AM 62.8°F17.1°C 59.5°F15.3°C 89% 0.5 mph NNW0.8 kmh NNW 2.2 mph3.5 kmh 29.88 in1011.9 mb 0.00 in0.0 mm 0.00 in0.0 mm 0.00 in0.0 mm
02:45 AM 62.8°F17.1°C 59.5°F15.3°C 89% 0.5 mph NW0.8 kmh NW 2.2 mph3.5 kmh 29.88 in1011.9 mb 0.00 in0.0 mm 0.00 in0.0 mm 0.00 in0.0 mm
03:00 AM 63.0°F17.2°C 59.7°F15.4°C 89% 0.3 mph SW0.5 kmh SW 1.6 mph2.6 kmh 29.88 in1011.9 mb 0.00 in0.0 mm 0.00 in0.0 mm 0.00 in0.0 mm
03:15 AM 62.8°F17.1°C 59.5°F15.3°C 89% 0.2 mph WNW0.3 kmh WNW 0.7 mph1.1 kmh 29.89 in1012.2 mb 0.00 in0.0 mm 0.00 in0.0 mm 0.00 in0.0 mm
03:30 AM 62.4°F16.9°C 59.5°F15.3°C 90% 0.7 mph NW1.1 kmh NW 1.6 mph2.6 kmh 29.88 in1011.9 mb 0.00 in0.0 mm 0.00 in0.0 mm 0.00 in0.0 mm
03:45 AM 62.1°F16.7°C 59.4°F15.2°C 91% 0.1 mph N0.2 kmh N 0.7 mph1.1 kmh 29.87 in1011.5 mb 0.00 in0.0 mm 0.00 in0.0 mm 0.00 in0.0 mm
04:00 AM 61.9°F16.6°C 59.5°F15.3°C 92% 0.9 mph N1.4 kmh N 1.6 mph2.6 kmh 29.87 in1011.5 mb 0.00 in0.0 mm 0.00 in0.0 mm 0.00 in0.0 mm
04:15 AM 61.9°F16.6°C 59.9°F15.5°C 93% 1.0 mph N1.6 kmh N 1.6 mph2.6 kmh 29.87 in1011.5 mb 0.00 in0.0 mm 0.00 in0.0 mm 0.00 in0.0 mm
04:30 AM 61.9°F16.6°C 59.9°F15.5°C 93% 0.5 mph NNW0.8 kmh NNW 1.6 mph2.6 kmh 29.87 in1011.5 mb 0.01 in0.3 mm 0.04 in1.0 mm 0.01 in0.3 mm
04:45 AM 61.9°F16.6°C 60.2°F15.7°C 94% 0.1 mph N0.2 kmh N 0.7 mph1.1 kmh 29.88 in1011.9 mb 0.01 in0.3 mm 0.00 in0.0 mm 0.01 in0.3 mm
05:00 AM 62.1°F16.7°C 60.3°F15.7°C 94% 0.9 mph ESE1.4 kmh ESE 3.1 mph5.0 kmh 29.87 in1011.5 mb 0.01 in0.3 mm 0.00 in0.0 mm 0.01 in0.3 mm
05:15 AM 62.1°F16.7°C 60.3°F15.7°C 94% 0.4 mph NNW0.6 kmh NNW 1.6 mph2.6 kmh 29.88 in1011.9 mb 0.01 in0.3 mm 0.00 in0.0 mm 0.01 in0.3 mm
05:30 AM 62.2°F16.8°C 60.5°F15.8°C 94% 0.2 mph N0.3 kmh N 0.7 mph1.1 kmh 29.87 in1011.5 mb 0.00 in0.0 mm 0.00 in0.0 mm 0.01 in0.3 mm
05:45 AM 62.4°F16.9°C 60.7°F15.9°C 94% 0.6 mph WNW1.0 kmh WNW 1.6 mph2.6 kmh 29.87 in1011.5 mb 0.00 in0.0 mm 0.00 in0.0 mm 0.01 in0.3 mm
06:00 AM 62.6°F17.0°C 60.6°F15.9°C 93% 0.8 mph NE1.3 kmh NE 1.6 mph2.6 kmh 29.88 in1011.9 mb 0.00 in0.0 mm 0.00 in0.0 mm 0.01 in0.3 mm
06:15 AM 61.5°F16.4°C 59.5°F15.3°C 93% 3.0 mph S4.8 kmh S 4.5 mph7.2 kmh 29.89 in1012.2 mb 0.00 in0.0 mm 0.00 in0.0 mm 0.01 in0.3 mm
06:30 AM 61.0°F16.1°C 58.7°F14.8°C 92% 2.3 mph ESE3.7 kmh ESE 5.4 mph8.7 kmh 29.89 in1012.2 mb 0.00 in0.0 mm 0.00 in0.0 mm 0.01 in0.3 mm
06:45 AM 60.6°F15.9°C 58.6°F14.8°C 93% 2.1 mph WSW3.4 kmh WSW 3.8 mph6.1 kmh 29.89 in1012.2 mb 0.00 in0.0 mm 0.00 in0.0 mm 0.01 in0.3 mm
07:00 AM 60.6°F15.9°C 58.6°F14.8°C 93% 1.6 mph SSE2.6 kmh SSE 3.1 mph5.0 kmh 29.89 in1012.2 mb 0.00 in0.0 mm 0.00 in0.0 mm 0.01 in0.3 mm
07:15 AM 60.4°F15.8°C 58.1°F14.5°C 92% 2.0 mph NE3.2 kmh NE 3.8 mph6.1 kmh 29.89 in1012.2 mb 0.00 in0.0 mm 0.00 in0.0 mm 0.01 in0.3 mm
07:30 AM 61.2°F16.2°C 58.2°F14.6°C 90% 2.6 mph SW4.2 kmh SW 3.8 mph6.1 kmh 29.89 in1012.2 mb 0.00 in0.0 mm 0.00 in0.0 mm 0.01 in0.3 mm
07:45 AM 61.2°F16.2°C 57.9°F14.4°C 89% 1.7 mph SSW2.7 kmh SSW 3.1 mph5.0 kmh 29.90 in1012.5 mb 0.00 in0.0 mm 0.00 in0.0 mm 0.01 in0.3 mm
08:00 AM 61.0°F16.1°C 57.4°F14.1°C 88% 1.9 mph SSE3.1 kmh SSE 4.5 mph7.2 kmh 29.90 in1012.5 mb 0.00 in0.0 mm 0.00 in0.0 mm 0.01 in0.3 mm
08:15 AM 61.7°F16.5°C 57.8°F14.3°C 87% 1.9 mph S3.1 kmh S 4.5 mph7.2 kmh 29.90 in1012.5 mb 0.00 in0.0 mm 0.00 in0.0 mm 0.01 in0.3 mm
08:30 AM 62.2°F16.8°C 57.4°F14.1°C 84% 2.4 mph WNW3.9 kmh WNW 3.8 mph6.1 kmh 29.91 in1012.9 mb 0.00 in0.0 mm 0.00 in0.0 mm 0.01 in0.3 mm
08:45 AM 62.1°F16.7°C 56.2°F13.4°C 81% 3.1 mph S5.0 kmh S 6.0 mph9.7 kmh 29.91 in1012.9 mb 0.00 in0.0 mm 0.00 in0.0 mm 0.01 in0.3 mm
09:00 AM 64.6°F18.1°C 57.9°F14.4°C 79% 2.9 mph SW4.7 kmh SW 4.5 mph7.2 kmh 29.91 in1012.9 mb 0.00 in0.0 mm 0.00 in0.0 mm 0.01 in0.3 mm
09:15 AM 63.1°F17.3°C 55.5°F13.1°C 76% 2.8 mph SW4.5 kmh SW 4.5 mph7.2 kmh 29.91 in1012.9 mb 0.00 in0.0 mm 0.00 in0.0 mm 0.01 in0.3 mm
09:30 AM 63.7°F17.6°C 56.0°F13.3°C 76% 2.6 mph N4.2 kmh N 4.5 mph7.2 kmh 29.92 in1013.2 mb 0.00 in0.0 mm 0.00 in0.0 mm 0.01 in0.3 mm
09:45 AM 64.6°F18.1°C 56.5°F13.6°C 75% 3.3 mph S5.3 kmh S 6.0 mph9.7 kmh 29.91 in1012.9 mb 0.00 in0.0 mm 0.00 in0.0 mm 0.01 in0.3 mm
10:00 AM 65.5°F18.6°C 56.6°F13.7°C 73% 2.0 mph SE3.2 kmh SE 4.5 mph7.2 kmh 29.92 in1013.2 mb 0.00 in0.0 mm 0.00 in0.0 mm 0.01 in0.3 mm
10:15 AM 66.7°F19.3°C 56.7°F13.7°C 70% 2.4 mph S3.9 kmh S 3.8 mph6.1 kmh 29.92 in1013.2 mb 0.00 in0.0 mm 0.00 in0.0 mm 0.01 in0.3 mm
10:30 AM 66.6°F19.2°C 55.3°F12.9°C 67% 2.2 mph S3.5 kmh S 3.1 mph5.0 kmh 29.92 in1013.2 mb 0.00 in0.0 mm 0.00 in0.0 mm 0.01 in0.3 mm
10:45 AM 65.5°F18.6°C 55.1°F12.8°C 69% 2.9 mph SE4.7 kmh SE 6.0 mph9.7 kmh 29.92 in1013.2 mb 0.00 in0.0 mm 0.00 in0.0 mm 0.01 in0.3 mm
11:00 AM 64.8°F18.2°C 55.5°F13.1°C 72% 2.6 mph SW4.2 kmh SW 3.1 mph5.0 kmh 29.92 in1013.2 mb 0.00 in0.0 mm 0.00 in0.0 mm 0.01 in0.3 mm
11:15 AM 67.5°F19.7°C 56.6°F13.7°C 68% 2.8 mph WSW4.5 kmh WSW 4.5 mph7.2 kmh 29.92 in1013.2 mb 0.00 in0.0 mm 0.00 in0.0 mm 0.01 in0.3 mm
11:30 AM 70.0°F21.1°C 55.5°F13.1°C 60% 2.6 mph NNE4.2 kmh NNE 3.8 mph6.1 kmh 29.92 in1013.2 mb 0.00 in0.0 mm 0.00 in0.0 mm 0.01 in0.3 mm
11:45 AM 70.7°F21.5°C 53.8°F12.1°C 55% 3.8 mph S6.1 kmh S 6.9 mph11.1 kmh 29.92 in1013.2 mb 0.00 in0.0 mm 0.00 in0.0 mm 0.01 in0.3 mm
12:00 PM 73.0°F22.8°C 54.4°F12.4°C 52% 3.1 mph SSE5.0 kmh SSE 4.5 mph7.2 kmh 29.92 in1013.2 mb 0.00 in0.0 mm 0.00 in0.0 mm 0.01 in0.3 mm
12:15 PM 71.2°F21.8°C 53.8°F12.1°C 54% 3.4 mph SW5.5 kmh SW 7.6 mph12.2 kmh 29.92 in1013.2 mb 0.00 in0.0 mm 0.00 in0.0 mm 0.01 in0.3 mm
12:30 PM 72.7°F22.6°C 53.0°F11.7°C 50% 3.8 mph WSW6.1 kmh WSW 6.0 mph9.7 kmh 29.92 in1013.2 mb 0.00 in0.0 mm 0.00 in0.0 mm 0.01 in0.3 mm
12:45 PM 70.9°F21.6°C 52.4°F11.3°C 52% 3.2 mph W5.1 kmh W 5.4 mph8.7 kmh 29.92 in1013.2 mb 0.00 in0.0 mm 0.00 in0.0 mm 0.01 in0.3 mm
01:00 PM 71.2°F21.8°C 52.2°F11.2°C 51% 2.8 mph SW4.5 kmh SW 3.8 mph6.1 kmh 29.92 in1013.2 mb 0.00 in0.0 mm 0.00 in0.0 mm 0.01 in0.3 mm
01:15 PM 70.9°F21.6°C 51.9°F11.1°C 51% 2.6 mph W4.2 kmh W 4.5 mph7.2 kmh 29.92 in1013.2 mb 0.00 in0.0 mm 0.00 in0.0 mm 0.01 in0.3 mm
01:30 PM 73.2°F22.9°C 52.4°F11.3°C 48% 3.5 mph WNW5.6 kmh WNW 6.0 mph9.7 kmh 29.91 in1012.9 mb 0.00 in0.0 mm 0.00 in0.0 mm 0.01 in0.3 mm
01:45 PM 75.9°F24.4°C 52.5°F11.4°C 44% 2.9 mph N4.7 kmh N 6.0 mph9.7 kmh 29.91 in1012.9 mb 0.00 in0.0 mm 0.00 in0.0 mm 0.01 in0.3 mm
02:00 PM 75.6°F24.2°C 50.2°F10.1°C 41% 4.2 mph WSW6.8 kmh WSW 6.0 mph9.7 kmh 29.91 in1012.9 mb 0.00 in0.0 mm 0.00 in0.0 mm 0.01 in0.3 mm
02:15 PM 73.9°F23.3°C 51.9°F11.1°C 46% 1.8 mph NNE2.9 kmh NNE 3.1 mph5.0 kmh 29.91 in1012.9 mb 0.00 in0.0 mm 0.00 in0.0 mm 0.01 in0.3 mm
02:30 PM 73.6°F23.1°C 51.6°F10.9°C 46% 2.8 mph WSW4.5 kmh WSW 4.5 mph7.2 kmh 29.91 in1012.9 mb 0.00 in0.0 mm 0.00 in0.0 mm 0.01 in0.3 mm
02:45 PM 72.7°F22.6°C 51.3°F10.7°C 47% 3.6 mph S5.8 kmh S 6.0 mph9.7 kmh 29.91 in1012.9 mb 0.00 in0.0 mm 0.00 in0.0 mm 0.01 in0.3 mm
03:00 PM 71.2°F21.8°C 51.1°F10.6°C 49% 2.9 mph SSW4.7 kmh SSW 6.0 mph9.7 kmh 29.91 in1012.9 mb 0.00 in0.0 mm 0.00 in0.0 mm 0.01 in0.3 mm
03:15 PM 76.3°F24.6°C 50.9°F10.5°C 41% 3.6 mph S5.8 kmh S 6.0 mph9.7 kmh 29.91 in1012.9 mb 0.00 in0.0 mm 0.00 in0.0 mm 0.01 in0.3 mm
03:30 PM 75.4°F24.1°C 49.4°F9.7°C 40% 3.2 mph NNE5.1 kmh NNE 4.5 mph7.2 kmh 29.90 in1012.5 mb 0.00 in0.0 mm 0.00 in0.0 mm 0.01 in0.3 mm
03:45 PM 74.8°F23.8°C 50.2°F10.1°C 42% 3.3 mph SW5.3 kmh SW 6.0 mph9.7 kmh 29.91 in1012.9 mb 0.00 in0.0 mm 0.00 in0.0 mm 0.01 in0.3 mm
04:00 PM 72.7°F22.6°C 48.9°F9.4°C 43% 2.5 mph ENE4.0 kmh ENE 4.5 mph7.2 kmh 29.91 in1012.9 mb 0.00 in0.0 mm 0.00 in0.0 mm 0.01 in0.3 mm
04:15 PM 73.2°F22.9°C 48.8°F9.3°C 42% 2.7 mph NE4.3 kmh NE 5.4 mph8.7 kmh 29.91 in1012.9 mb 0.00 in0.0 mm 0.00 in0.0 mm 0.01 in0.3 mm
04:30 PM 71.2°F21.8°C 49.4°F9.7°C 46% 2.3 mph S3.7 kmh S 4.5 mph7.2 kmh 29.91 in1012.9 mb 0.00 in0.0 mm 0.00 in0.0 mm 0.01 in0.3 mm
04:45 PM 70.7°F21.5°C 48.9°F9.4°C 46% 3.0 mph SW4.8 kmh SW 4.5 mph7.2 kmh 29.91 in1012.9 mb 0.00 in0.0 mm 0.00 in0.0 mm 0.01 in0.3 mm
05:00 PM 70.3°F21.3°C 49.2°F9.6°C 47% 2.0 mph SE3.2 kmh SE 3.1 mph5.0 kmh 29.91 in1012.9 mb 0.00 in0.0 mm 0.00 in0.0 mm 0.01 in0.3 mm
05:15 PM 70.7°F21.5°C 48.9°F9.4°C 46% 1.7 mph N2.7 kmh N 3.8 mph6.1 kmh 29.90 in1012.5 mb 0.00 in0.0 mm 0.00 in0.0 mm 0.01 in0.3 mm
05:30 PM 70.0°F21.1°C 49.4°F9.7°C 48% 2.2 mph WSW3.5 kmh WSW 4.5 mph7.2 kmh 29.91 in1012.9 mb 0.00 in0.0 mm 0.00 in0.0 mm 0.01 in0.3 mm
05:45 PM 69.4°F20.8°C 49.5°F9.7°C 49% 1.9 mph SSW3.1 kmh SSW 3.1 mph5.0 kmh 29.90 in1012.5 mb 0.00 in0.0 mm 0.00 in0.0 mm 0.01 in0.3 mm
06:00 PM 69.1°F20.6°C 49.7°F9.8°C 50% 1.6 mph W2.6 kmh W 2.2 mph3.5 kmh 29.91 in1012.9 mb 0.00 in0.0 mm 0.00 in0.0 mm 0.01 in0.3 mm
06:15 PM 67.8°F19.9°C 48.5°F9.2°C 50% 1.7 mph NW2.7 kmh NW 4.5 mph7.2 kmh 29.91 in1012.9 mb 0.00 in0.0 mm 0.00 in0.0 mm 0.01 in0.3 mm
06:30 PM 67.3°F19.6°C 48.0°F8.9°C 50% 2.2 mph SW3.5 kmh SW 3.8 mph6.1 kmh 29.91 in1012.9 mb 0.00 in0.0 mm 0.00 in0.0 mm 0.01 in0.3 mm
06:45 PM 66.6°F19.2°C 47.9°F8.8°C 51% 1.1 mph WSW1.8 kmh WSW 3.1 mph5.0 kmh 29.91 in1012.9 mb 0.00 in0.0 mm 0.00 in0.0 mm 0.01 in0.3 mm
07:00 PM 66.0°F18.9°C 48.4°F9.1°C 53% 1.5 mph W2.4 kmh W 3.1 mph5.0 kmh 29.92 in1013.2 mb 0.00 in0.0 mm 0.00 in0.0 mm 0.01 in0.3 mm
07:15 PM 65.5°F18.6°C 48.4°F9.1°C 54% 0.9 mph W1.4 kmh W 1.6 mph2.6 kmh 29.92 in1013.2 mb 0.00 in0.0 mm 0.00 in0.0 mm 0.01 in0.3 mm
07:30 PM 65.1°F18.4°C 48.1°F8.9°C 54% 1.0 mph SW1.6 kmh SW 2.2 mph3.5 kmh 29.92 in1013.2 mb 0.00 in0.0 mm 0.00 in0.0 mm 0.01 in0.3 mm
07:45 PM 64.2°F17.9°C 48.2°F9.0°C 56% 0.3 mph SSW0.5 kmh SSW 0.7 mph1.1 kmh 29.91 in1012.9 mb 0.00 in0.0 mm 0.00 in0.0 mm 0.01 in0.3 mm
08:00 PM 63.5°F17.5°C 48.5°F9.2°C 58% 0.1 mph SW0.2 kmh SW 0.7 mph1.1 kmh 29.92 in1013.2 mb 0.00 in0.0 mm 0.00 in0.0 mm 0.01 in0.3 mm
08:15 PM 63.0°F17.2°C 49.3°F9.6°C 61% Calm Calm -- 29.92 in1013.2 mb 0.00 in0.0 mm 0.00 in0.0 mm 0.01 in0.3 mm
08:30 PM 62.1°F16.7°C 51.0°F10.6°C 67% 0.1 mph SSW0.2 kmh SSW 0.7 mph1.1 kmh 29.93 in1013.5 mb 0.00 in0.0 mm 0.00 in0.0 mm 0.01 in0.3 mm
08:45 PM 61.3°F16.3°C 50.7°F10.4°C 68% Calm Calm 0.7 mph1.1 kmh 29.93 in1013.5 mb 0.00 in0.0 mm 0.00 in0.0 mm 0.01 in0.3 mm
09:00 PM 60.6°F15.9°C 51.2°F10.7°C 71% 0.4 mph SSW0.6 kmh SSW 0.7 mph1.1 kmh 29.93 in1013.5 mb 0.00 in0.0 mm 0.00 in0.0 mm 0.01 in0.3 mm
09:15 PM 60.3°F15.7°C 51.2°F10.7°C 72% Calm Calm -- 29.93 in1013.5 mb 0.00 in0.0 mm 0.00 in0.0 mm 0.01 in0.3 mm
09:30 PM 60.1°F15.6°C 50.7°F10.4°C 71% Calm Calm -- 29.93 in1013.5 mb 0.00 in0.0 mm 0.00 in0.0 mm 0.01 in0.3 mm
09:45 PM 59.9°F15.5°C 51.2°F10.7°C 73% 1.0 mph WNW1.6 kmh WNW 1.6 mph2.6 kmh 29.93 in1013.5 mb 0.00 in0.0 mm 0.00 in0.0 mm 0.01 in0.3 mm
10:00 PM 59.5°F15.3°C 51.3°F10.7°C 74% 0.4 mph SE0.6 kmh SE 1.6 mph2.6 kmh 29.93 in1013.5 mb 0.00 in0.0 mm 0.00 in0.0 mm 0.01 in0.3 mm
10:15 PM 59.2°F15.1°C 51.3°F10.7°C 75% 0.2 mph SW0.3 kmh SW 1.6 mph2.6 kmh 29.94 in1013.9 mb 0.00 in0.0 mm 0.00 in0.0 mm 0.01 in0.3 mm
10:30 PM 58.8°F14.9°C 52.0°F11.1°C 78% 0.1 mph SE0.2 kmh SE 0.7 mph1.1 kmh 29.93 in1013.5 mb 0.00 in0.0 mm 0.00 in0.0 mm 0.01 in0.3 mm
10:45 PM 58.5°F14.7°C 52.3°F11.3°C 80% 0.3 mph WNW0.5 kmh WNW 0.7 mph1.1 kmh 29.93 in1013.5 mb 0.00 in0.0 mm 0.00 in0.0 mm 0.01 in0.3 mm
11:00 PM 58.1°F14.5°C 52.3°F11.3°C 81% 0.4 mph W0.6 kmh W 1.6 mph2.6 kmh 29.93 in1013.5 mb 0.00 in0.0 mm 0.00 in0.0 mm 0.01 in0.3 mm
11:15 PM 58.5°F14.7°C 51.6°F10.9°C 78% 0.3 mph WNW0.5 kmh WNW 1.6 mph2.6 kmh 29.94 in1013.9 mb 0.00 in0.0 mm 0.00 in0.0 mm 0.01 in0.3 mm
11:30 PM 58.1°F14.5°C 51.6°F10.9°C 79% 0.2 mph SE0.3 kmh SE 0.7 mph1.1 kmh 29.94 in1013.9 mb 0.00 in0.0 mm 0.00 in0.0 mm 0.01 in0.3 mm
11:45 PM 57.6°F14.2°C 51.1°F10.6°C 79% 0.2 mph NE0.3 kmh NE 0.7 mph1.1 kmh 29.93 in1013.5 mb 0.00 in0.0 mm 0.00 in0.0 mm 0.01 in0.3 mm